Time;durP1;ratioP1;P1;durP2;ratioP2;P2;SDS_P1;SDS_P2;PMS_P1;PMS_P2;Temp;Humidity;BMP_temperature;BMP_pressure;BME280_temperature;BME280_humidity;BME280_pressure;Samples;Min_cycle;Max_cycle;Signal;HPM_P1;HPM_P2
2021/05/06 00:31:02;;;;;;;16.15;4.30;;;;;;;4.65;87.60;99825.31;5240890;28;20040;-78
2021/05/06 00:33:27;;;;;;;13.52;3.20;;;;;;;4.57;89.05;99827.25;5231273;28;20103;-77
2021/05/06 00:35:57;;;;;;;14.43;3.35;;;;;;;4.66;88.33;99831.34;5235894;28;20274;-78
2021/05/06 00:38:31;;;;;;;15.30;3.30;;;;;;;4.71;88.51;99827.75;5236823;28;20024;-77
2021/05/06 00:53:51;;;;;;;12.13;2.63;;;;;;;4.90;86.03;99821.25;5234963;28;20036;-77
2021/05/06 00:58:25;;;;;;;7.72;1.98;;;;;;;5.11;83.16;99810.34;5231761;28;20032;-79
2021/05/06 01:06:12;;;;;;;9.32;2.10;;;;;;;5.03;83.63;99816.59;5236137;28;20081;-77
2021/05/06 01:08:47;;;;;;;13.27;2.28;;;;;;;5.00;83.79;99812.34;5233395;28;20024;-77
2021/05/06 01:11:38;;;;;;;11.50;2.00;;;;;;;4.96;83.97;99825.44;5237177;28;20025;-78
2021/05/06 01:14:10;;;;;;;7.97;2.10;;;;;;;5.02;83.20;99820.09;5236276;28;20032;-78
2021/05/06 01:16:40;;;;;;;15.95;2.67;;;;;;;4.95;83.66;99819.38;5234039;28;20103;-78
2021/05/06 01:19:10;;;;;;;14.10;2.40;;;;;;;4.98;82.96;99821.88;5236626;28;20103;-77
2021/05/06 01:21:41;;;;;;;12.63;2.50;;;;;;;4.98;83.76;99819.31;5233910;28;20028;-77
2021/05/06 01:24:11;;;;;;;10.45;2.15;;;;;;;4.95;82.70;99815.97;5236570;28;20028;-77
2021/05/06 01:27:00;;;;;;;9.18;1.95;;;;;;;4.99;83.13;99826.19;5243773;28;20033;-78
2021/05/06 01:29:40;;;;;;;10.43;2.10;;;;;;;5.00;82.38;99812.34;5242109;28;20028;-77
2021/05/06 01:32:31;;;;;;;9.50;1.90;;;;;;;4.84;83.27;99810.19;5241862;28;20029;-79
2021/05/06 01:35:06;;;;;;;15.45;2.50;;;;;;;4.88;84.03;99815.25;5237115;28;20029;-78
2021/05/06 01:37:48;;;;;;;11.85;2.15;;;;;;;4.86;84.14;99809.28;5234479;28;21467;-77
2021/05/06 02:00:16;;;;;;;11.38;1.85;;;;;;;4.66;83.58;99811.47;5243297;28;20036;-78
2021/05/06 02:02:47;;;;;;;10.60;2.00;;;;;;;4.69;83.77;99806.25;5232665;28;20017;-77
2021/05/06 02:05:18;;;;;;;9.85;2.22;;;;;;;4.54;84.59;99798.00;5236247;28;20106;-78
2021/05/06 02:07:48;;;;;;;9.23;2.15;;;;;;;4.49;83.86;99802.44;5232874;28;20478;-78
2021/05/06 02:10:22;;;;;;;13.05;2.25;;;;;;;4.44;84.99;99801.69;5236515;28;20029;-78
2021/05/06 02:12:54;;;;;;;12.60;2.70;;;;;;;4.42;84.34;99803.44;5236968;28;20538;-78
2021/05/06 02:15:28;;;;;;;14.25;2.10;;;;;;;4.52;84.03;99802.34;5235205;28;20028;-78
2021/05/06 02:17:59;;;;;;;9.20;1.90;;;;;;;4.56;83.74;99802.25;5233812;28;20383;-77
2021/05/06 02:20:29;;;;;;;11.38;2.10;;;;;;;4.62;83.11;99799.50;5234644;28;20111;-78
2021/05/06 02:23:03;;;;;;;10.02;2.20;;;;;;;4.60;84.13;99797.88;5233483;28;20489;-77
2021/05/06 02:25:33;;;;;;;8.70;1.88;;;;;;;4.56;84.15;99797.09;5238750;28;20052;-78
2021/05/06 02:28:04;;;;;;;8.73;2.00;;;;;;;4.38;84.66;99800.09;5243759;28;20060;-78
2021/05/06 02:30:34;;;;;;;14.55;1.95;;;;;;;4.38;84.91;99794.94;5243531;28;20393;-78
2021/05/06 02:33:07;;;;;;;13.30;2.25;;;;;;;4.49;85.31;99795.50;5237238;28;20036;-78
2021/05/06 02:35:39;;;;;;;15.25;2.42;;;;;;;4.32;85.69;99800.22;5234787;28;20511;-78
2021/05/06 02:38:09;;;;;;;10.52;2.20;;;;;;;4.35;85.18;99800.19;5233132;28;20108;-77
2021/05/06 02:40:39;;;;;;;12.73;2.30;;;;;;;4.37;84.71;99798.41;5235073;28;20103;-78
2021/05/06 02:43:09;;;;;;;14.13;2.30;;;;;;;4.49;83.95;99784.31;5232518;28;20027;-77
2021/05/06 02:45:40;;;;;;;11.25;2.53;;;;;;;4.47;85.13;99792.13;5234637;28;20024;-78
2021/05/06 02:48:10;;;;;;;11.35;2.33;;;;;;;4.43;85.06;99785.31;5214826;28;20035;-78
2021/05/06 02:50:45;;;;;;;11.68;2.35;;;;;;;4.37;85.93;99788.06;5236073;28;20020;-78
2021/05/06 02:53:19;;;;;;;11.10;2.50;;;;;;;4.33;85.63;99786.41;5233245;28;20389;-78
2021/05/06 03:04:16;;;;;;;12.65;2.65;;;;;;;4.31;87.02;99780.44;5236007;28;20043;-77
2021/05/06 03:06:57;;;;;;;16.80;2.97;;;;;;;4.30;86.29;99776.13;5231227;28;20029;-78
2021/05/06 03:22:56;;;;;;;13.52;3.45;;;;;;;4.56;87.77;99773.78;5235164;28;20063;-77
2021/05/06 03:25:29;;;;;;;10.43;2.88;;;;;;;4.58;87.54;99766.84;5237650;28;20081;-78
2021/05/06 03:28:05;;;;;;;9.68;3.10;;;;;;;4.65;87.00;99770.13;5242762;28;20055;-77
2021/05/06 03:31:05;;;;;;;12.18;3.17;;;;;;;4.73;86.80;99771.66;5243149;28;20115;-77
2021/05/06 03:42:17;;;;;;;17.13;4.10;;;;;;;4.98;86.88;99772.69;5234460;28;20170;-77
2021/05/06 03:45:12;;;;;;;12.60;3.17;;;;;;;5.19;86.40;99771.28;5234367;28;20020;-77
2021/05/06 04:16:10;;;;;;;14.30;4.30;;;;;;;5.50;86.82;99765.22;5231386;28;20051;-78
2021/05/06 04:18:41;;;;;;;10.63;3.78;;;;;;;5.66;86.69;99764.75;5238941;28;20420;-78
2021/05/06 04:27:02;;;;;;;16.55;4.10;;;;;;;5.64;86.91;99770.88;5246912;28;20027;-78
2021/05/06 04:37:58;;;;;;;11.25;4.60;;;;;;;5.77;87.68;99769.63;5238160;28;20037;-77
2021/05/06 04:40:57;;;;;;;15.52;4.40;;;;;;;5.99;87.35;99773.31;5236522;28;20024;-78
2021/05/06 05:05:42;;;;;;;14.73;5.70;;;;;;;6.14;89.59;99767.66;5232887;28;20532;-79
2021/05/06 05:08:15;;;;;;;17.88;6.75;;;;;;;6.03;90.99;99773.19;5237409;28;20040;-80
2021/05/06 05:23:59;;;;;;;14.27;6.03;;;;;;;6.14;88.53;99773.72;5239569;28;20040;-79
2021/05/06 05:26:29;;;;;;;12.57;6.63;;;;;;;6.28;88.24;99765.50;5246054;28;20024;-80
2021/05/06 05:28:59;;;;;;;12.50;7.00;;;;;;;6.17;89.56;99768.44;5248552;28;20239;-81
2021/05/06 05:31:29;;;;;;;12.25;6.60;;;;;;;6.21;89.13;99767.44;5238986;28;20024;-81
2021/05/06 05:34:45;;;;;;;11.95;5.70;;;;;;;6.30;89.19;99769.75;5242610;28;20055;-81
2021/05/06 05:36:55;;;;;;;11.73;5.80;;;;;;;6.43;89.71;99781.41;5241507;28;20036;-81
2021/05/06 05:39:38;;;;;;;13.32;6.15;;;;;;;6.28;88.84;99781.06;5243356;28;20486;-80
2021/05/06 05:42:24;;;;;;;12.35;5.78;;;;;;;6.42;89.93;99778.88;5241301;28;20020;-80
2021/05/06 05:56:08;;;;;;;12.82;6.45;;;;;;;6.39;92.12;99773.81;5244496;28;20047;-80
2021/05/06 05:58:38;;;;;;;10.73;6.40;;;;;;;6.37;92.98;99776.44;5247731;28;20375;-81
2021/05/06 06:01:08;;;;;;;14.50;6.90;;;;;;;6.32;94.36;99783.53;5248562;28;20045;-80
2021/05/06 06:03:38;;;;;;;12.70;6.13;;;;;;;6.58;92.88;99780.09;5239725;28;20037;-80
2021/05/06 06:06:09;;;;;;;12.68;7.20;;;;;;;6.51;94.06;99784.63;5236639;28;20386;-80
2021/05/06 06:08:39;;;;;;;12.20;6.95;;;;;;;6.44;95.21;99777.91;5239550;28;20025;-80
2021/05/06 06:11:10;;;;;;;12.65;7.18;;;;;;;6.64;94.69;99782.47;5218672;28;20179;-80
2021/05/06 06:13:40;;;;;;;17.73;8.15;;;;;;;6.47;94.63;99787.38;5239238;28;20439;-80
2021/05/06 06:16:13;;;;;;;16.73;7.88;;;;;;;6.31;96.21;99775.78;5236796;28;20505;-81
2021/05/06 06:18:49;;;;;;;16.23;9.07;;;;;;;6.60;96.02;99775.69;5236804;28;20024;-81
2021/05/06 06:21:23;;;;;;;16.48;8.73;;;;;;;6.60;94.83;99773.94;5240956;28;20062;-80
2021/05/06 06:23:54;;;;;;;14.50;7.83;;;;;;;6.67;94.01;99774.59;5238739;28;20024;-80
2021/05/06 06:26:26;;;;;;;20.00;9.60;;;;;;;6.74;95.67;99786.50;5248738;28;20028;-81
2021/05/06 06:29:02;;;;;;;15.30;9.15;;;;;;;6.52;94.90;99795.84;5245296;28;20118;-80
2021/05/06 06:31:42;;;;;;;18.15;9.57;;;;;;;6.40;95.93;99791.91;5247429;28;20024;-80
2021/05/06 06:34:12;;;;;;;14.82;9.02;;;;;;;6.08;97.17;99793.78;5236431;28;20432;-79
2021/05/06 06:36:46;;;;;;;14.50;8.93;;;;;;;5.77;96.69;99800.72;5238941;28;20086;-80
2021/05/06 06:39:17;;;;;;;14.30;9.50;;;;;;;5.71;98.59;99803.50;5236090;28;20051;-78
2021/05/06 06:41:48;;;;;;;17.17;10.70;;;;;;;5.39;100.00;99812.16;5238884;28;20103;-81
2021/05/06 06:44:20;;;;;;;16.52;9.73;;;;;;;5.36;100.00;99811.38;5238727;28;20028;-79
2021/05/06 06:47:00;;;;;;;17.65;10.00;;;;;;;5.49;100.00;99803.25;5235350;28;20033;-79
2021/05/06 06:49:32;;;;;;;16.10;10.73;;;;;;;5.32;100.00;99801.16;5238094;28;20477;-79
2021/05/06 06:52:04;;;;;;;17.55;10.57;;;;;;;5.48;100.00;99811.91;5235529;28;20550;-79
2021/05/06 06:54:35;;;;;;;13.63;9.73;;;;;;;5.38;100.00;99801.84;5237094;28;20033;-78
2021/05/06 06:57:06;;;;;;;15.15;9.98;;;;;;;5.40;100.00;99800.91;5248050;28;20040;-80
2021/05/06 06:59:37;;;;;;;15.63;10.57;;;;;;;5.60;100.00;99797.78;5246962;28;20024;-79
2021/05/06 07:02:07;;;;;;;16.38;10.88;;;;;;;5.55;100.00;99807.41;5244418;28;20081;-78
2021/05/06 07:04:37;;;;;;;19.23;11.55;;;;;;;5.70;100.00;99804.38;5238043;28;20016;-78
2021/05/06 07:07:07;;;;;;;16.00;10.60;;;;;;;5.62;100.00;99809.81;5236498;28;20025;-78
2021/05/06 07:09:38;;;;;;;18.25;10.43;;;;;;;5.64;100.00;99809.75;5237477;28;20028;-78
2021/05/06 07:12:08;;;;;;;17.35;10.23;;;;;;;5.58;100.00;99807.34;5235438;28;20103;-78
2021/05/06 07:14:38;;;;;;;14.18;9.80;;;;;;;5.55;100.00;99808.25;5237468;28;20035;-81
2021/05/06 07:17:09;;;;;;;18.25;10.50;;;;;;;5.64;100.00;99802.84;5235534;28;20601;-81
2021/05/06 07:19:39;;;;;;;17.83;10.48;;;;;;;5.88;100.00;99814.28;5237205;28;20094;-80
2021/05/06 07:22:10;;;;;;;15.00;9.90;;;;;;;5.84;100.00;99807.47;5234870;28;20427;-78
2021/05/06 07:24:40;;;;;;;20.92;10.35;;;;;;;5.91;100.00;99802.06;5237825;28;20030;-79
2021/05/06 07:27:10;;;;;;;14.93;9.23;;;;;;;5.86;100.00;99800.47;5245298;28;20028;-79
2021/05/06 07:29:40;;;;;;;15.10;9.75;;;;;;;5.95;100.00;99813.19;5246063;28;20499;-78
2021/05/06 07:32:11;;;;;;;16.23;10.50;;;;;;;6.00;100.00;99808.72;5241939;28;20056;-82
2021/05/06 07:34:41;;;;;;;13.95;10.25;;;;;;;5.76;100.00;99819.78;5237870;28;20055;-79
2021/05/06 07:37:11;;;;;;;16.88;10.85;;;;;;;5.82;100.00;99806.66;5238633;28;20215;-78
2021/05/06 07:39:41;;;;;;;18.38;11.90;;;;;;;5.95;100.00;99805.41;5233260;28;20025;-79
2021/05/06 07:42:12;;;;;;;19.25;11.52;;;;;;;5.97;100.00;99801.03;5237376;28;20016;-79
2021/05/06 07:44:42;;;;;;;20.02;11.65;;;;;;;5.91;100.00;99807.25;5233615;28;20008;-79
2021/05/06 07:47:12;;;;;;;18.20;11.32;;;;;;;5.82;100.00;99814.44;5236594;28;20055;-79
2021/05/06 07:49:43;;;;;;;15.48;12.07;;;;;;;5.89;100.00;99816.81;5234097;28;20029;-79
2021/05/06 07:52:14;;;;;;;17.45;11.73;;;;;;;5.86;100.00;99814.31;5235885;28;20559;-79
2021/05/06 07:54:46;;;;;;;15.60;11.43;;;;;;;6.00;100.00;99822.53;5235619;28;20028;-79
2021/05/06 07:57:16;;;;;;;16.13;11.38;;;;;;;6.05;100.00;99822.41;5244426;28;20025;-79
2021/05/06 07:59:46;;;;;;;14.55;11.35;;;;;;;6.08;100.00;99820.56;5244262;28;20028;-79
2021/05/06 08:02:17;;;;;;;15.88;11.60;;;;;;;6.02;100.00;99830.25;5240456;28;20020;-79
2021/05/06 08:04:47;;;;;;;15.02;10.65;;;;;;;5.89;100.00;99827.19;5235876;28;20108;-79
2021/05/06 08:07:17;;;;;;;15.18;11.15;;;;;;;6.16;100.00;99826.38;5235916;28;20200;-79
2021/05/06 08:09:48;;;;;;;15.70;11.30;;;;;;;6.14;100.00;99827.31;5230729;28;20029;-80
2021/05/06 08:12:20;;;;;;;13.27;10.63;;;;;;;6.06;100.00;99826.72;5230420;28;20100;-79
2021/05/06 08:14:52;;;;;;;14.23;10.15;;;;;;;5.94;100.00;99837.44;5232402;28;20024;-79
2021/05/06 08:17:24;;;;;;;13.55;10.57;;;;;;;5.91;100.00;99838.34;5234287;28;20044;-80
2021/05/06 08:19:54;;;;;;;14.73;10.77;;;;;;;6.01;100.00;99841.53;5216029;28;20129;-80
2021/05/06 08:22:24;;;;;;;15.20;11.68;;;;;;;6.04;100.00;99838.84;5231388;28;20144;-79
2021/05/06 08:24:55;;;;;;;14.98;10.75;;;;;;;6.28;100.00;99838.13;5234358;28;20029;-80
2021/05/06 08:27:25;;;;;;;15.10;11.93;;;;;;;6.45;100.00;99836.72;5234115;28;20448;-79
2021/05/06 08:29:55;;;;;;;16.20;11.40;;;;;;;6.71;99.16;99833.28;5233704;28;20118;-80
2021/05/06 08:32:27;;;;;;;14.68;10.98;;;;;;;6.83;98.17;99832.91;5236574;28;20035;-80
2021/05/06 08:34:57;;;;;;;17.13;11.60;;;;;;;7.20;100.00;99834.25;5236026;28;20024;-80
2021/05/06 08:37:27;;;;;;;16.35;11.55;;;;;;;7.78;99.59;99832.16;5233380;28;20520;-80
2021/05/06 08:39:58;;;;;;;13.63;10.23;;;;;;;7.55;95.16;99829.50;5234997;28;20033;-80
2021/05/06 08:42:29;;;;;;;14.50;10.32;;;;;;;8.07;95.30;99833.69;5233120;28;20032;-80
2021/05/06 08:45:01;;;;;;;12.70;9.15;;;;;;;8.34;92.13;99836.13;5236820;28;20056;-79
2021/05/06 08:47:32;;;;;;;15.38;9.82;;;;;;;8.42;91.34;99838.44;5229960;28;20020;-80
2021/05/06 08:50:03;;;;;;;11.23;8.48;;;;;;;8.13;91.76;99834.31;5234478;28;20056;-79
2021/05/06 08:52:34;;;;;;;12.18;8.05;;;;;;;8.09;91.81;99840.56;5233670;28;20025;-80
2021/05/06 08:55:05;;;;;;;11.38;9.05;;;;;;;7.40;96.04;99839.63;5237775;28;20484;-80
2021/05/06 08:57:35;;;;;;;11.90;9.35;;;;;;;7.59;95.06;99838.94;5245749;28;20042;-80
2021/05/06 09:00:06;;;;;;;12.30;8.77;;;;;;;7.72;95.08;99832.38;5243691;28;20037;-79
2021/05/06 09:02:43;;;;;;;11.55;9.48;;;;;;;8.54;97.09;99836.19;5241416;28;20021;-80
2021/05/06 09:05:15;;;;;;;10.40;8.95;;;;;;;8.59;92.80;99842.06;5240065;28;20028;-80
2021/05/06 09:07:46;;;;;;;10.15;8.20;;;;;;;8.62;91.37;99841.97;5240733;28;20429;-80
2021/05/06 09:10:36;;;;;;;10.27;7.65;;;;;;;8.66;92.30;99843.53;5242069;28;20025;-80
2021/05/06 09:13:28;;;;;;;10.65;8.23;;;;;;;8.96;90.98;99842.31;5239617;28;20124;-79
2021/05/06 09:16:00;;;;;;;10.23;7.93;;;;;;;9.37;88.11;99844.03;5241128;28;20021;-80
2021/05/06 09:18:43;;;;;;;10.52;8.25;;;;;;;9.71;88.27;99841.69;5238492;28;20025;-80
2021/05/06 09:21:27;;;;;;;11.55;7.70;;;;;;;10.08;86.10;99836.56;5239108;28;20472;-81
2021/05/06 09:24:19;;;;;;;10.25;7.80;;;;;;;10.87;85.98;99832.75;5237685;28;20047;-80
2021/05/06 09:27:01;;;;;;;9.85;7.25;;;;;;;10.81;84.89;99837.41;5243332;28;20039;-79
2021/05/06 09:29:40;;;;;;;9.48;6.97;;;;;;;10.82;83.66;99829.50;5238047;28;20460;-78
2021/05/06 09:32:20;;;;;;;9.05;6.55;;;;;;;9.90;84.76;99842.56;5236545;28;20036;-78
2021/05/06 09:34:54;;;;;;;7.88;6.65;;;;;;;10.08;86.26;99828.72;5237017;28;20112;-78
2021/05/06 09:37:30;;;;;;;10.52;7.03;;;;;;;9.65;86.90;99845.41;5237320;28;20028;-79
2021/05/06 09:40:03;;;;;;;8.90;7.28;;;;;;;9.75;88.36;99840.63;5234663;28;20049;-78
2021/05/06 09:42:41;;;;;;;8.95;6.75;;;;;;;9.98;85.86;99830.03;5234573;28;20036;-78
2021/05/06 09:45:27;;;;;;;8.80;7.03;;;;;;;9.84;87.27;99841.06;5235824;28;20439;-78
2021/05/06 09:48:10;;;;;;;9.70;6.50;;;;;;;10.02;84.75;99834.22;5232569;28;20028;-77
2021/05/06 09:50:42;;;;;;;7.60;6.05;;;;;;;9.97;84.89;99844.84;5237159;28;20028;-78
2021/05/06 09:53:15;;;;;;;7.28;5.82;;;;;;;9.67;85.40;99840.13;5236103;28;20056;-78
2021/05/06 09:55:46;;;;;;;7.00;5.68;;;;;;;9.45;85.09;99834.16;5238101;28;20033;-79
2021/05/06 09:58:23;;;;;;;9.52;5.97;;;;;;;9.52;85.34;99844.22;5238288;28;20024;-78
2021/05/06 10:00:54;;;;;;;9.07;5.85;;;;;;;10.01;86.42;99832.50;5225145;28;20078;-79
2021/05/06 10:03:32;;;;;;;6.43;5.40;;;;;;;10.43;80.21;99830.56;5236514;28;20498;-78
2021/05/06 10:06:28;;;;;;;6.90;5.32;;;;;;;10.92;81.68;99827.28;5215761;28;20036;-79
2021/05/06 10:09:02;;;;;;;;;;;;;;;10.96;81.03;99826.22;5238502;28;20035;-78
2021/05/06 10:11:33;;;;;;;7.43;5.00;;;;;;;10.87;76.57;99818.84;5231666;28;19999;-78
2021/05/06 10:14:03;;;;;;;9.00;5.85;;;;;;;11.27;78.65;99822.03;5234001;28;20096;-79
2021/05/06 10:16:34;;;;;;;11.13;5.43;;;;;;;11.43;77.45;99820.31;5236654;28;20411;-79
2021/05/06 10:19:04;;;;;;;6.15;5.03;;;;;;;11.54;78.63;99816.22;5234830;28;20107;-79
2021/05/06 10:21:34;;;;;;;7.88;4.90;;;;;;;11.86;77.17;99812.81;5234232;28;20028;-77
2021/05/06 10:24:05;;;;;;;9.20;6.25;;;;;;;11.63;75.15;99809.69;5235121;28;20041;-79
2021/05/06 10:26:36;;;;;;;6.18;4.50;;;;;;;11.16;74.66;99814.72;5241214;28;20456;-78
2021/05/06 10:29:07;;;;;;;9.43;5.95;;;;;;;11.22;76.36;99817.00;5243339;28;20086;-78
2021/05/06 10:31:40;;;;;;;9.75;6.40;;;;;;;10.83;76.12;99825.13;5243735;28;20034;-78
2021/05/06 10:34:12;;;;;;;8.70;4.75;;;;;;;10.78;76.32;99814.03;5232969;28;20078;-78
2021/05/06 10:36:44;;;;;;;10.00;5.70;;;;;;;10.99;76.03;99815.63;5235642;28;20387;-80
2021/05/06 10:39:15;;;;;;;7.25;4.25;;;;;;;10.84;75.67;99819.00;5236387;28;20025;-79
2021/05/06 10:41:45;;;;;;;7.90;4.57;;;;;;;11.26;75.75;99810.69;5231702;28;20025;-78
2021/05/06 10:44:15;;;;;;;7.68;4.68;;;;;;;10.74;75.72;99810.75;5217773;28;20030;-79
2021/05/06 10:47:03;;;;;;;6.47;4.25;;;;;;;11.13;75.85;99811.41;5238645;28;20836;-78
2021/05/06 10:49:39;;;;;;;6.47;4.13;;;;;;;11.27;76.50;99809.78;5214786;28;20601;-78
2021/05/06 10:52:14;;;;;;;6.82;3.90;;;;;;;11.20;75.27;99816.25;5215842;28;20036;-78
2021/05/06 10:54:50;;;;;;;8.07;5.43;;;;;;;10.80;75.02;99810.44;5234574;28;20024;-79
2021/05/06 10:57:22;;;;;;;;;;;;;;;11.25;72.95;99798.53;5234929;28;20028;-79
2021/05/06 10:59:52;;;;;;;7.13;3.72;;;;;;;11.28;76.90;99797.56;5244203;28;19912;-80
2021/05/06 11:02:42;;;;;;;5.88;3.45;;;;;;;11.80;75.74;99793.97;5238090;28;20478;-81
2021/05/06 11:05:13;;;;;;;9.15;3.22;;;;;;;12.09;73.92;99796.72;5233869;28;20053;-80
2021/05/06 11:08:18;;;;;;;5.22;3.00;;;;;;;12.10;71.50;99790.53;5237723;28;20027;-79
2021/05/06 11:10:49;;;;;;;24.48;13.68;;;;;;;11.97;71.64;99781.66;5237433;28;20452;-79
2021/05/06 11:13:26;;;;;;;6.55;3.42;;;;;;;11.95;71.44;99785.28;5237922;28;20028;-80
2021/05/06 11:16:18;;;;;;;11.48;4.75;;;;;;;12.15;71.33;99778.03;5235689;28;20588;-82
2021/05/06 11:18:50;;;;;;;5.88;2.70;;;;;;;12.26;70.49;99778.31;5239093;28;20024;-81
2021/05/06 11:21:30;;;;;;;5.68;3.35;;;;;;;12.09;69.71;99783.63;5234391;28;20020;-82
2021/05/06 11:24:18;;;;;;;7.65;2.90;;;;;;;11.75;71.79;99777.66;5242788;28;20016;-83
2021/05/06 11:27:21;;;;;;;5.63;2.78;;;;;;;11.72;69.12;99783.91;5237371;28;20070;-82
2021/05/06 11:29:52;;;;;;;8.05;3.30;;;;;;;11.85;69.38;99779.72;5231365;28;20057;-82
2021/05/06 11:32:24;;;;;;;6.45;3.03;;;;;;;11.04;68.59;99775.22;5230509;28;20490;-81
2021/05/06 11:34:54;;;;;;;10.02;5.47;;;;;;;11.21;71.06;99775.22;5237264;28;20041;-82
2021/05/06 11:37:29;;;;;;;6.13;2.90;;;;;;;11.67;72.19;99771.97;5236039;28;20578;-82
2021/05/06 11:40:03;;;;;;;5.97;3.20;;;;;;;11.85;70.77;99768.38;5237567;28;20031;-82
2021/05/06 11:42:39;;;;;;;6.75;3.30;;;;;;;12.07;70.57;99761.03;5233831;28;20044;-82
2021/05/06 11:45:23;;;;;;;6.95;2.60;;;;;;;12.00;68.48;99755.31;5235517;28;20531;-82
2021/05/06 11:47:55;;;;;;;6.07;2.65;;;;;;;11.75;68.39;99757.56;5251356;28;20032;-82
2021/05/06 11:50:27;;;;;;;4.45;2.65;;;;;;;11.62;68.75;99764.34;5239276;28;20095;-82
2021/05/06 11:52:59;;;;;;;6.72;3.20;;;;;;;11.22;69.84;99756.84;5243020;28;20033;-82
2021/05/06 11:55:41;;;;;;;6.57;2.78;;;;;;;11.53;72.27;99743.88;5243604;28;20028;-82
2021/05/06 11:58:24;;;;;;;8.77;3.35;;;;;;;11.77;70.63;99747.84;5239400;28;20055;-80
2021/05/06 12:00:55;;;;;;;7.13;3.25;;;;;;;12.07;68.89;99745.34;5231337;28;20028;-80
2021/05/06 12:03:39;;;;;;;8.93;3.20;;;;;;;11.90;67.27;99754.13;5235088;28;20017;-80
2021/05/06 12:06:09;;;;;;;8.60;4.20;;;;;;;11.51;67.27;99748.34;5227897;28;20029;-81
2021/05/06 12:08:47;;;;;;;9.27;3.35;;;;;;;11.59;66.96;99751.44;5230815;28;20036;-81
2021/05/06 12:11:18;;;;;;;8.68;3.42;;;;;;;11.66;68.79;99754.56;5241386;28;20664;-79
2021/05/06 12:13:51;;;;;;;6.90;3.10;;;;;;;11.75;67.62;99752.31;5236203;28;20090;-80
2021/05/06 12:16:26;;;;;;;6.95;3.28;;;;;;;11.69;66.93;99752.66;5232476;28;20028;-80
2021/05/06 12:19:02;;;;;;;5.13;2.70;;;;;;;11.96;68.04;99753.78;5234739;28;20028;-79
2021/05/06 12:21:42;;;;;;;4.85;2.25;;;;;;;11.65;63.68;99745.88;5233514;28;20083;-80
2021/05/06 12:24:37;;;;;;;4.35;2.20;;;;;;;11.86;64.93;99743.88;5238501;28;20024;-80
2021/05/06 12:27:34;;;;;;;5.28;2.35;;;;;;;11.64;67.29;99743.34;5241478;28;20490;-80
2021/05/06 12:30:13;;;;;;;5.65;2.42;;;;;;;11.73;65.24;99738.47;5236949;28;20029;-80
2021/05/06 12:32:46;;;;;;;6.53;2.35;;;;;;;11.79;65.65;99732.91;5218102;28;20021;-80
2021/05/06 12:35:16;;;;;;;6.65;2.30;;;;;;;12.22;65.73;99731.41;5238951;28;20070;-80
2021/05/06 12:37:50;;;;;;;4.60;2.30;;;;;;;12.46;64.62;99735.28;5235580;28;20452;-80
2021/05/06 12:40:21;;;;;;;6.35;2.10;;;;;;;12.61;65.15;99719.50;5239352;28;20024;-80
2021/05/06 12:42:51;;;;;;;6.20;2.17;;;;;;;12.68;65.36;99725.25;5216869;28;20445;-80
2021/05/06 12:45:22;;;;;;;5.68;2.20;;;;;;;13.10;63.73;99710.50;5224447;28;20115;-80
2021/05/06 12:47:52;;;;;;;3.63;1.83;;;;;;;12.90;62.46;99709.00;5238313;28;20036;-80
2021/05/06 12:50:26;;;;;;;4.25;1.90;;;;;;;12.87;60.43;99695.25;5236197;28;20033;-80
2021/05/06 12:53:08;;;;;;;4.93;2.10;;;;;;;12.63;61.20;99691.44;5238263;28;20226;-80
2021/05/06 12:55:42;;;;;;;4.28;2.00;;;;;;;12.82;59.43;99699.91;5238563;28;20032;-78
2021/05/06 12:58:15;;;;;;;4.68;1.67;;;;;;;12.97;60.94;99696.41;5243077;28;20021;-78
2021/05/06 13:01:02;;;;;;;9.15;1.90;;;;;;;13.01;58.60;99690.91;5244601;28;20028;-77
2021/05/06 13:03:35;;;;;;;5.50;1.75;;;;;;;12.67;58.44;99692.94;5239953;28;20504;-77
2021/05/06 13:06:15;;;;;;;4.55;1.85;;;;;;;12.75;58.96;99689.88;5238047;28;20539;-78
2021/05/06 13:08:47;;;;;;;4.60;1.80;;;;;;;12.72;58.89;99672.56;5235543;28;20703;-77
2021/05/06 13:11:21;;;;;;;4.18;1.90;;;;;;;12.60;57.69;99670.66;5239543;28;20050;-78
2021/05/06 13:13:54;;;;;;;4.65;1.80;;;;;;;12.62;59.89;99675.81;5239262;28;20032;-80
2021/05/06 13:16:38;;;;;;;3.88;1.70;;;;;;;12.61;59.23;99682.81;5235563;28;20021;-79
2021/05/06 13:19:11;;;;;;;6.40;2.20;;;;;;;12.62;60.17;99679.25;5235782;28;20509;-79
2021/05/06 13:21:50;;;;;;;5.07;2.20;;;;;;;12.29;59.20;99680.38;5220319;28;20029;-79
2021/05/06 13:24:21;;;;;;;3.45;1.73;;;;;;;12.49;59.27;99672.19;5221680;28;20024;-80
2021/05/06 13:26:51;;;;;;;4.07;2.00;;;;;;;12.37;59.91;99665.91;5238380;28;20017;-79
2021/05/06 13:29:21;;;;;;;4.18;2.10;;;;;;;12.29;61.34;99675.94;5241964;28;20020;-80
2021/05/06 13:31:52;;;;;;;4.55;2.10;;;;;;;12.48;61.39;99671.34;5246447;28;20099;-78
2021/05/06 13:34:27;;;;;;;4.03;1.75;;;;;;;12.48;60.65;99668.72;5236012;28;20032;-78
2021/05/06 13:37:01;;;;;;;4.57;1.88;;;;;;;12.56;59.72;99663.03;5220429;28;20023;-78
2021/05/06 13:39:33;;;;;;;4.30;2.00;;;;;;;12.70;61.76;99666.56;5237499;28;20029;-78
2021/05/06 13:42:03;;;;;;;6.85;2.72;;;;;;;12.67;61.74;99660.66;5235663;28;20025;-78
2021/05/06 13:44:35;;;;;;;5.30;2.33;;;;;;;12.88;61.33;99643.63;5236378;28;20095;-79
2021/05/06 13:47:07;;;;;;;8.35;3.22;;;;;;;13.12;58.90;99650.91;5234223;28;20032;-79
2021/05/06 13:49:37;;;;;;;11.60;4.15;;;;;;;12.98;59.15;99657.00;5234961;28;20028;-78
2021/05/06 13:52:07;;;;;;;10.27;4.47;;;;;;;12.80;59.34;99656.38;5232265;28;20108;-79
2021/05/06 13:54:38;;;;;;;13.60;5.57;;;;;;;12.84;61.18;99658.72;5232893;28;20028;-78
2021/05/06 13:57:08;;;;;;;10.70;4.55;;;;;;;12.85;58.84;99655.16;5234144;28;20102;-78
2021/05/06 13:59:38;;;;;;;12.02;5.47;;;;;;;12.97;59.42;99648.38;5234889;28;20036;-78
2021/05/06 14:02:09;;;;;;;11.13;4.75;;;;;;;13.07;58.81;99647.75;5240605;28;20100;-79
2021/05/06 14:04:39;;;;;;;7.10;2.90;;;;;;;12.94;59.79;99638.91;5235393;28;20051;-79
2021/05/06 14:07:09;;;;;;;5.05;2.40;;;;;;;13.03;59.52;99646.25;5234156;28;20040;-79
2021/05/06 14:09:40;;;;;;;6.70;2.67;;;;;;;12.80;60.24;99645.88;5235642;28;20405;-80
2021/05/06 14:12:11;;;;;;;5.70;2.67;;;;;;;12.79;58.91;99645.03;5233371;28;20033;-79
2021/05/06 14:14:41;;;;;;;6.13;2.67;;;;;;;12.47;59.75;99642.63;5210316;28;20044;-79
2021/05/06 14:17:11;;;;;;;4.80;2.35;;;;;;;12.35;61.02;99641.56;5231886;28;20432;-80
2021/05/06 14:19:42;;;;;;;7.18;2.80;;;;;;;12.51;60.73;99642.38;5232391;28;20509;-80
2021/05/06 14:22:12;;;;;;;6.00;2.60;;;;;;;12.42;60.74;99640.25;5229339;28;20035;-80
2021/05/06 14:24:42;;;;;;;11.18;4.82;;;;;;;12.57;59.35;99638.50;5233026;28;20501;-80
2021/05/06 14:27:13;;;;;;;5.28;2.60;;;;;;;12.52;58.24;99636.19;5239590;28;20047;-80
2021/05/06 14:29:43;;;;;;;4.25;2.45;;;;;;;12.36;58.62;99645.88;5238309;28;20127;-80
2021/05/06 14:32:25;;;;;;;5.05;2.30;;;;;;;12.36;58.03;99624.91;5234487;28;20386;-80
2021/05/06 14:34:56;;;;;;;4.55;2.45;;;;;;;12.43;59.66;99631.47;5218406;28;20531;-79
2021/05/06 14:37:26;;;;;;;5.47;1.98;;;;;;;12.85;58.88;99623.69;5233667;28;20066;-79
2021/05/06 14:39:56;;;;;;;3.33;1.90;;;;;;;12.94;57.65;99615.31;5232844;28;20024;-79
2021/05/06 14:42:27;;;;;;;7.93;2.28;;;;;;;12.78;58.39;99613.69;5238917;28;20050;-79
2021/05/06 14:44:57;;;;;;;5.10;2.15;;;;;;;13.02;57.91;99611.28;5229893;28;20021;-79
2021/05/06 14:47:27;;;;;;;4.07;2.03;;;;;;;12.86;55.52;99607.03;5235374;28;20067;-78
2021/05/06 14:49:57;;;;;;;3.83;1.85;;;;;;;12.81;57.83;99605.63;5235066;28;20271;-79
2021/05/06 14:52:28;;;;;;;4.97;2.10;;;;;;;12.57;57.37;99615.78;5232075;28;20055;-82
2021/05/06 14:54:58;;;;;;;5.93;1.70;;;;;;;12.84;56.87;99610.69;5232518;28;20036;-79
2021/05/06 14:57:28;;;;;;;2.72;2.00;;;;;;;13.02;57.96;99605.19;5221842;28;20028;-79
2021/05/06 14:59:59;;;;;;;4.72;2.30;;;;;;;13.00;58.01;99612.31;5233858;28;20470;-79
2021/05/06 15:02:29;;;;;;;5.95;2.60;;;;;;;12.84;58.51;99611.50;5236706;28;20102;-79
2021/05/06 15:05:00;;;;;;;4.90;2.10;;;;;;;12.95;57.12;99606.50;5233814;28;20056;-79
2021/05/06 15:07:30;;;;;;;6.95;2.30;;;;;;;12.63;56.03;99599.69;5232498;28;20032;-80
2021/05/06 15:10:00;;;;;;;3.67;2.20;;;;;;;12.82;56.48;99596.81;5234738;28;20428;-79
2021/05/06 15:12:32;;;;;;;4.43;2.40;;;;;;;12.59;55.62;99595.56;5230934;28;20021;-79